createdAt,value
2018-12-12T00:02:22.439Z,78.40
2018-12-12T00:04:56.048Z,79.40
2018-12-12T00:07:44.290Z,80.50
2018-12-12T00:10:19.425Z,80.40
2018-12-12T00:12:47.740Z,80.80
2018-12-12T00:15:16.668Z,79.40
2018-12-12T00:17:44.325Z,80.50
2018-12-12T00:22:44.182Z,80.60
2018-12-12T00:25:11.493Z,80.80
2018-12-12T00:27:38.902Z,80.60
2018-12-12T00:30:06.473Z,79.80
2018-12-12T00:32:34.016Z,80.80
2018-12-12T00:35:01.535Z,80.10
2018-12-12T00:37:31.322Z,80.80
2018-12-12T00:39:58.665Z,79.90
2018-12-12T00:42:26.227Z,80.80
2018-12-12T00:44:53.538Z,81.30
2018-12-12T00:47:20.906Z,80.90
2018-12-12T00:49:48.374Z,81.10
2018-12-12T00:52:20.783Z,81.60
2018-12-12T00:54:48.579Z,80.90
2018-12-12T00:57:16.158Z,80.90
2018-12-12T00:59:43.514Z,80.80
2018-12-12T01:02:11.129Z,81.70
2018-12-12T01:04:39.833Z,81.90
2018-12-12T01:07:07.816Z,82.40
2018-12-12T01:09:35.085Z,84.70
2018-12-12T01:12:08.377Z,84.90
2018-12-12T01:14:35.784Z,84.70
2018-12-12T01:17:03.303Z,85.90
2018-12-12T01:19:34.390Z,86.30
2018-12-12T01:22:01.890Z,86.80
2018-12-12T01:24:29.155Z,86.40
2018-12-12T01:26:57.337Z,86.30
2018-12-12T01:29:24.658Z,86.10
2018-12-12T01:31:58.877Z,86.50
2018-12-12T01:34:26.360Z,86.30
2018-12-12T01:36:54.098Z,86.00
2018-12-12T01:39:21.570Z,86.10
2018-12-12T01:41:49.012Z,85.60
2018-12-12T01:44:22.076Z,85.60
2018-12-12T01:46:49.510Z,85.90
2018-12-12T01:49:16.722Z,86.00
2018-12-12T01:51:44.029Z,86.30
2018-12-12T01:54:11.308Z,87.30
2018-12-12T01:56:38.643Z,87.10
2018-12-12T01:59:09.637Z,86.70
2018-12-12T02:01:37.185Z,86.00
2018-12-12T02:04:04.541Z,86.00
2018-12-12T02:06:31.757Z,86.50
2018-12-12T02:08:58.990Z,87.20
2018-12-12T02:11:26.246Z,86.90
2018-12-12T02:13:57.956Z,86.10
2018-12-12T02:16:25.411Z,86.10
2018-12-12T02:18:53.198Z,86.30
2018-12-12T02:21:20.608Z,86.80
2018-12-12T02:23:47.940Z,86.80
2018-12-12T02:26:15.194Z,87.30
2018-12-12T02:28:44.594Z,86.80
2018-12-12T02:31:12.557Z,87.90
2018-12-12T02:33:39.838Z,86.70
2018-12-12T02:36:07.095Z,86.90
2018-12-12T02:38:34.324Z,87.00
2018-12-12T02:41:06.942Z,87.40
2018-12-12T02:43:34.317Z,87.30
2018-12-12T02:46:02.022Z,87.50
2018-12-12T02:48:29.295Z,88.20
2018-12-12T02:50:56.587Z,88.10
2018-12-12T02:53:23.841Z,87.90
2018-12-12T02:55:55.815Z,87.70
2018-12-12T02:58:23.185Z,88.80
2018-12-12T03:00:50.514Z,88.60
2018-12-12T03:03:17.876Z,89.00
2018-12-12T03:05:45.207Z,88.20
2018-12-12T03:08:12.462Z,88.30
2018-12-12T03:10:43.034Z,88.60
2018-12-12T03:13:10.355Z,88.50
2018-12-12T03:15:37.642Z,89.20
2018-12-12T03:18:05.042Z,89.30
2018-12-12T03:20:32.272Z,89.10
2018-12-12T03:22:59.573Z,88.60
2018-12-12T03:25:30.393Z,88.20
2018-12-12T03:27:57.709Z,88.30
2018-12-12T03:30:25.092Z,89.00
2018-12-12T03:32:52.416Z,89.20
2018-12-12T03:35:19.704Z,89.60
2018-12-12T03:37:47.039Z,90.00
2018-12-12T03:40:18.749Z,90.10
2018-12-12T03:42:46.649Z,90.10
2018-12-12T03:45:14.240Z,90.10
2018-12-12T03:47:41.561Z,90.10
2018-12-12T03:50:09.061Z,89.20
2018-12-12T03:52:36.386Z,89.10
2018-12-12T03:55:05.643Z,89.30
2018-12-12T03:57:32.947Z,89.20
2018-12-12T04:00:01.613Z,90.10
2018-12-12T04:02:29.992Z,90.30
2018-12-12T04:04:58.477Z,90.30
2018-12-12T04:07:30.558Z,90.30
2018-12-12T04:09:58.010Z,90.20
2018-12-12T04:12:25.681Z,90.70
2018-12-12T04:14:53.069Z,90.80
2018-12-12T04:17:20.391Z,91.00
2018-12-12T04:19:48.808Z,90.50
2018-12-12T04:22:18.599Z,90.50
2018-12-12T04:24:46.181Z,90.50
2018-12-12T04:27:13.554Z,90.20
2018-12-12T04:29:41.970Z,90.40
2018-12-12T04:32:10.429Z,90.40
2018-12-12T04:34:45.675Z,90.50
2018-12-12T04:37:13.083Z,90.60
2018-12-12T04:39:40.386Z,90.60
2018-12-12T04:42:07.882Z,90.50
2018-12-12T04:44:35.144Z,90.80
2018-12-12T04:47:02.463Z,91.30
2018-12-12T04:49:30.170Z,91.50
2018-12-12T04:51:58.486Z,91.70
2018-12-12T04:54:26.024Z,92.00
2018-12-12T04:56:53.504Z,91.80
2018-12-12T04:59:22.516Z,91.70
2018-12-12T05:01:51.053Z,91.60
2018-12-12T05:04:26.051Z,91.20
2018-12-12T05:06:53.878Z,91.10
2018-12-12T05:09:21.394Z,91.00
2018-12-12T05:11:48.642Z,91.10
2018-12-12T05:14:15.908Z,90.80
2018-12-12T05:16:47.962Z,90.60
2018-12-12T05:19:15.230Z,91.10
2018-12-12T05:21:42.601Z,91.70
2018-12-12T05:24:10.205Z,91.50
2018-12-12T05:26:37.483Z,91.30
2018-12-12T05:31:38.104Z,91.10
2018-12-12T05:34:05.653Z,91.10
2018-12-12T05:36:32.950Z,90.90
2018-12-12T05:39:00.565Z,91.60
2018-12-12T05:41:28.001Z,91.60
2018-12-12T05:43:58.294Z,91.20
2018-12-12T05:46:25.888Z,91.60
2018-12-12T05:48:53.186Z,91.90
2018-12-12T05:51:20.576Z,91.80
2018-12-12T05:53:47.870Z,91.60
2018-12-12T05:58:48.646Z,92.00
2018-12-12T06:01:15.948Z,92.00
2018-12-12T06:03:43.253Z,92.00
2018-12-12T06:06:10.535Z,92.00
2018-12-12T06:08:39.037Z,92.00
2018-12-12T06:11:07.966Z,92.00
2018-12-12T06:13:35.264Z,92.00
2018-12-12T06:16:03.796Z,92.00
2018-12-12T06:18:32.243Z,92.00
2018-12-12T06:21:02.713Z,92.00
2018-12-12T06:23:41.432Z,92.00
2018-12-12T06:26:08.822Z,91.60
2018-12-12T06:28:36.256Z,91.30
2018-12-12T06:31:03.769Z,91.20
2018-12-12T06:33:33.608Z,91.20
2018-12-12T06:36:01.125Z,91.10
2018-12-12T06:38:28.510Z,91.00
2018-12-12T06:40:56.541Z,90.90
2018-12-12T06:43:23.933Z,90.90
2018-12-12T06:45:51.221Z,91.00
2018-12-12T06:48:18.576Z,91.30
2018-12-12T06:50:50.733Z,91.40
2018-12-12T06:53:20.590Z,91.20
2018-12-12T06:55:48.117Z,91.10
2018-12-12T06:58:15.413Z,91.40
2018-12-12T07:00:42.877Z,91.40
2018-12-12T07:03:13.781Z,91.10
2018-12-12T07:05:41.742Z,91.90
2018-12-12T07:08:09.162Z,91.90
2018-12-12T07:10:36.617Z,92.00
2018-12-12T07:13:03.906Z,92.00
2018-12-12T07:15:35.833Z,92.00
2018-12-12T07:18:03.666Z,92.20
2018-12-12T07:20:30.929Z,92.30
2018-12-12T07:22:58.205Z,92.10
2018-12-12T07:25:25.633Z,92.20
2018-12-12T07:27:52.953Z,92.00
2018-12-12T07:30:22.686Z,91.90
2018-12-12T07:32:50.001Z,92.10
2018-12-12T07:35:17.304Z,92.20
2018-12-12T07:37:44.901Z,92.00
2018-12-12T07:40:12.230Z,91.90
2018-12-12T07:45:11.854Z,92.00
2018-12-12T07:47:39.197Z,92.30
2018-12-12T07:50:06.756Z,91.90
2018-12-12T07:52:34.074Z,92.00
2018-12-12T07:55:01.531Z,91.80
2018-12-12T08:00:11.469Z,91.70
2018-12-12T08:02:38.772Z,91.70
2018-12-12T08:05:11.457Z,91.80
2018-12-12T08:07:38.801Z,91.90
2018-12-12T08:10:06.426Z,91.80
2018-12-12T08:12:33.742Z,91.90
2018-12-12T08:15:01.162Z,91.90
2018-12-12T08:17:34.830Z,92.00
2018-12-12T08:20:02.408Z,91.90
2018-12-12T08:22:29.828Z,91.80
2018-12-12T08:24:57.142Z,91.70
2018-12-12T08:27:24.538Z,92.00
2018-12-12T08:29:51.816Z,91.80
2018-12-12T08:32:22.960Z,91.80
2018-12-12T08:34:50.394Z,91.60
2018-12-12T08:37:17.877Z,91.80
2018-12-12T08:39:45.189Z,91.90
2018-12-12T08:42:12.497Z,92.10
2018-12-12T08:44:45.847Z,92.10
2018-12-12T08:47:13.173Z,92.10
2018-12-12T08:49:40.482Z,92.10
2018-12-12T08:52:07.800Z,92.20
2018-12-12T08:54:35.089Z,92.10
2018-12-12T08:57:02.993Z,92.10
2018-12-12T08:59:34.286Z,92.10
2018-12-12T09:02:01.717Z,92.10
2018-12-12T09:04:29.017Z,92.20
2018-12-12T09:06:56.338Z,92.00
2018-12-12T09:09:23.726Z,91.90
2018-12-12T09:11:51.158Z,91.60
2018-12-12T09:14:21.064Z,91.80
2018-12-12T09:16:48.394Z,91.60
2018-12-12T09:19:15.711Z,91.60
2018-12-12T09:21:43.018Z,91.60
2018-12-12T09:24:10.326Z,91.80
2018-12-12T09:26:37.949Z,91.80
2018-12-12T09:29:05.246Z,91.40
2018-12-12T09:31:34.780Z,91.40
2018-12-12T09:34:02.173Z,91.30
2018-12-12T09:36:29.493Z,91.30
2018-12-12T09:38:56.765Z,91.40
2018-12-12T09:41:24.090Z,91.10
2018-12-12T09:43:57.674Z,90.80
2018-12-12T09:46:25.005Z,90.20
2018-12-12T09:48:52.510Z,90.40
2018-12-12T09:51:19.952Z,90.30
2018-12-12T09:53:47.218Z,90.30
2018-12-12T09:56:14.485Z,90.30
2018-12-12T09:58:42.890Z,90.30
2018-12-12T10:01:11.558Z,89.90
2018-12-12T10:03:39.983Z,89.50
2018-12-12T10:06:08.425Z,89.60
2018-12-12T10:08:38.557Z,89.30
2018-12-12T10:11:08.279Z,88.60
2018-12-12T10:13:35.577Z,87.60
2018-12-12T10:16:03.981Z,87.50
2018-12-12T10:18:32.431Z,86.90
2018-12-12T10:21:00.849Z,86.30
2018-12-12T10:23:33.777Z,86.30
2018-12-12T10:26:01.322Z,86.30
2018-12-12T10:28:28.653Z,86.00
2018-12-12T10:30:55.966Z,84.30
2018-12-12T10:33:23.333Z,84.50
2018-12-12T10:35:51.762Z,84.20
2018-12-12T10:38:21.510Z,83.80
2018-12-12T10:40:48.836Z,82.80
2018-12-12T10:43:16.232Z,82.70
2018-12-12T10:45:44.685Z,82.10
2018-12-12T10:48:13.347Z,81.90
2018-12-12T10:50:46.749Z,81.90
2018-12-12T10:53:14.105Z,81.90
2018-12-12T10:55:41.417Z,81.90
2018-12-12T10:58:08.725Z,80.90
2018-12-12T11:00:39.424Z,80.10
2018-12-12T11:03:20.161Z,78.80
2018-12-12T11:05:47.430Z,79.40
2018-12-12T11:08:14.729Z,78.10
2018-12-12T11:10:42.283Z,76.30
2018-12-12T11:13:09.577Z,76.50
2018-12-12T11:15:38.884Z,77.70
2018-12-12T11:18:06.205Z,77.20
2018-12-12T11:20:33.697Z,75.20
2018-12-12T11:23:01.219Z,75.80
2018-12-12T11:25:29.795Z,77.10
2018-12-12T11:27:58.280Z,74.70
2018-12-12T11:30:29.561Z,75.30
2018-12-12T11:32:56.874Z,76.00
2018-12-12T11:35:24.251Z,76.60
2018-12-12T11:37:51.579Z,76.50
2018-12-12T11:40:20.118Z,75.00
2018-12-12T11:42:54.507Z,73.00
2018-12-12T11:45:21.945Z,72.80
2018-12-12T11:47:49.295Z,73.60
2018-12-12T11:50:16.587Z,72.50
2018-12-12T11:52:43.849Z,71.00
2018-12-12T11:55:16.249Z,71.50
2018-12-12T11:57:43.697Z,70.60
2018-12-12T12:00:11.680Z,70.00
2018-12-12T12:02:38.991Z,70.60
2018-12-12T12:05:06.470Z,70.50
2018-12-12T12:07:33.810Z,70.50
2018-12-12T12:10:07.201Z,70.00
2018-12-12T12:12:34.881Z,67.90
2018-12-12T12:15:02.468Z,67.60
2018-12-12T12:17:29.867Z,68.20
2018-12-12T12:19:57.149Z,67.30
2018-12-12T12:22:28.644Z,67.60
2018-12-12T12:24:56.037Z,68.60
2018-12-12T12:27:23.357Z,68.10
2018-12-12T12:29:50.647Z,66.90
2018-12-12T12:32:19.045Z,65.60
2018-12-12T12:34:51.918Z,67.60
2018-12-12T12:37:19.269Z,67.60
2018-12-12T12:39:46.580Z,66.30
2018-12-12T12:42:13.903Z,67.30
2018-12-12T12:44:41.235Z,67.50
2018-12-12T12:47:08.599Z,66.80
2018-12-12T12:49:39.862Z,67.60
2018-12-12T12:52:07.286Z,67.70
2018-12-12T12:54:34.681Z,66.20
2018-12-12T12:57:02.122Z,66.40
2018-12-12T12:59:30.605Z,64.50
2018-12-12T13:02:04.170Z,62.60
2018-12-12T13:04:31.501Z,63.60
2018-12-12T13:06:58.889Z,65.40
2018-12-12T13:09:26.326Z,63.30
2018-12-12T13:11:53.795Z,63.10
2018-12-12T13:14:21.169Z,62.80
2018-12-12T13:16:51.146Z,62.70
2018-12-12T13:19:18.433Z,59.80
2018-12-12T13:21:46.879Z,62.20
2018-12-12T13:24:15.353Z,61.00
2018-12-12T13:26:43.996Z,57.40
2018-12-12T13:29:17.019Z,56.70
2018-12-12T13:31:44.362Z,59.00
2018-12-12T13:34:16.272Z,60.50
2018-12-12T13:36:41.004Z,59.80
2018-12-12T13:39:08.300Z,59.40
2018-12-12T13:41:41.497Z,60.20
2018-12-12T13:44:08.859Z,58.60
2018-12-12T13:46:36.809Z,60.10
2018-12-12T13:49:04.110Z,62.00
2018-12-12T13:51:31.830Z,60.40
2018-12-12T13:53:59.192Z,56.10
2018-12-12T13:56:28.048Z,57.00
2018-12-12T13:58:55.363Z,57.40
2018-12-12T14:01:22.682Z,58.40
2018-12-12T14:03:51.145Z,59.80
2018-12-12T14:06:19.709Z,57.30
2018-12-12T14:08:52.241Z,58.80
2018-12-12T14:11:19.847Z,58.60
2018-12-12T14:13:47.162Z,58.00
2018-12-12T14:16:14.550Z,59.10
2018-12-12T14:18:41.854Z,59.60
2018-12-12T14:21:15.686Z,59.70
2018-12-12T14:23:43.019Z,60.50
2018-12-12T14:26:10.398Z,58.30
2018-12-12T14:28:37.884Z,59.30
2018-12-12T14:31:05.293Z,59.70
2018-12-12T14:33:36.636Z,60.20
2018-12-12T14:36:04.152Z,60.10
2018-12-12T14:38:31.442Z,60.50
2018-12-12T14:40:58.845Z,60.40
2018-12-12T14:43:27.409Z,61.10
2018-12-12T14:46:00.973Z,58.50
2018-12-12T14:48:30.392Z,57.50
2018-12-12T14:50:57.825Z,60.00
2018-12-12T14:53:25.103Z,60.20
2018-12-12T14:55:52.470Z,60.20
2018-12-12T14:58:24.369Z,60.30
2018-12-12T15:00:51.645Z,59.40
2018-12-12T15:03:19.081Z,57.80
2018-12-12T15:05:46.437Z,57.70
2018-12-12T15:08:13.742Z,56.90
2018-12-12T15:10:44.081Z,57.00
2018-12-12T15:13:13.125Z,57.30
2018-12-12T15:15:40.502Z,58.20
2018-12-12T15:18:07.829Z,60.10
2018-12-12T15:20:35.151Z,56.70
2018-12-12T15:23:03.665Z,56.60
2018-12-12T15:25:35.257Z,57.80
2018-12-12T15:28:02.681Z,59.20
2018-12-12T15:30:29.983Z,60.00
2018-12-12T15:32:57.288Z,61.10
2018-12-12T15:35:25.573Z,59.90
2018-12-12T15:37:57.378Z,60.80
2018-12-12T15:40:24.670Z,61.60
2018-12-12T15:42:51.993Z,61.60
2018-12-12T15:45:19.428Z,61.60
2018-12-12T15:47:46.730Z,61.30
2018-12-12T15:50:20.335Z,61.30
2018-12-12T15:52:47.631Z,60.90
2018-12-12T15:55:15.018Z,61.50
2018-12-12T15:57:42.345Z,62.00
2018-12-12T16:00:10.998Z,62.20
2018-12-12T16:02:38.737Z,61.90
2018-12-12T16:05:12.235Z,61.40
2018-12-12T16:07:39.780Z,61.60
2018-12-12T16:10:07.616Z,62.30
2018-12-12T16:12:35.170Z,62.90
2018-12-12T16:15:03.096Z,63.10
2018-12-12T16:17:37.123Z,63.40
2018-12-12T16:20:05.464Z,63.70
2018-12-12T16:22:32.801Z,63.00
2018-12-12T16:25:00.541Z,62.60
2018-12-12T16:27:28.133Z,63.00
2018-12-12T16:30:01.469Z,63.00
2018-12-12T16:32:28.897Z,63.20
2018-12-12T16:34:56.190Z,63.70
2018-12-12T16:37:23.482Z,63.60
2018-12-12T16:39:50.818Z,63.20
2018-12-12T16:42:23.370Z,63.50
2018-12-12T16:44:51.107Z,63.70
2018-12-12T16:47:18.445Z,63.60
2018-12-12T16:49:45.775Z,63.60
2018-12-12T16:52:13.093Z,63.50
2018-12-12T16:54:40.413Z,63.80
2018-12-12T16:57:07.849Z,63.40
2018-12-12T16:59:36.954Z,63.10
2018-12-12T17:02:04.288Z,62.40
2018-12-12T17:04:31.585Z,62.60
2018-12-12T17:06:58.900Z,63.30
2018-12-12T17:09:27.270Z,62.70
2018-12-12T17:11:59.799Z,63.10
2018-12-12T17:14:27.178Z,63.40
2018-12-12T17:16:54.587Z,62.80
2018-12-12T17:19:23.070Z,62.40
2018-12-12T17:21:51.543Z,62.40
2018-12-12T17:24:25.739Z,62.20
2018-12-12T17:26:53.085Z,61.70
2018-12-12T17:29:20.731Z,60.50
2018-12-12T17:31:48.172Z,61.10
2018-12-12T17:34:15.762Z,61.70
2018-12-12T17:36:49.109Z,61.50
2018-12-12T17:39:16.515Z,61.70
2018-12-12T17:41:43.904Z,61.70
2018-12-12T17:44:11.209Z,61.50
2018-12-12T17:46:38.524Z,61.50
2018-12-12T17:49:05.980Z,61.70
2018-12-12T17:51:35.768Z,61.80
2018-12-12T17:54:03.424Z,61.90
2018-12-12T17:56:30.760Z,61.70
2018-12-12T17:58:59.145Z,61.10
2018-12-12T18:01:27.609Z,61.00
2018-12-12T18:03:59.703Z,61.30
2018-12-12T18:06:27.006Z,61.70
2018-12-12T18:08:54.349Z,61.80
2018-12-12T18:11:22.006Z,61.70
2018-12-12T18:13:50.401Z,61.70
2018-12-12T18:16:24.221Z,61.80
2018-12-12T18:18:51.452Z,61.50
2018-12-12T18:21:18.981Z,61.20
2018-12-12T18:23:46.421Z,61.80
2018-12-12T18:26:13.825Z,61.30
2018-12-12T18:28:41.154Z,61.90
2018-12-12T18:31:10.857Z,61.70
2018-12-12T18:33:38.167Z,61.80
2018-12-12T18:36:05.510Z,62.80
2018-12-12T18:38:34.073Z,63.00
2018-12-12T18:41:02.720Z,62.30
2018-12-12T18:43:33.548Z,61.70
2018-12-12T18:46:02.242Z,61.80
2018-12-12T18:48:29.545Z,61.80
2018-12-12T18:50:56.861Z,62.40
2018-12-12T18:53:25.157Z,62.80
2018-12-12T18:55:52.433Z,61.90
2018-12-12T18:58:20.872Z,61.80
2018-12-12T19:00:51.087Z,61.80
2018-12-12T19:03:18.366Z,62.20
2018-12-12T19:05:46.773Z,61.90
2018-12-12T19:08:15.280Z,63.50
2018-12-12T19:10:43.689Z,62.60
2018-12-12T19:13:17.277Z,63.30
2018-12-12T19:15:44.576Z,64.10
2018-12-12T19:18:11.871Z,64.70
2018-12-12T19:20:39.169Z,64.10
2018-12-12T19:23:06.513Z,63.50
2018-12-12T19:25:34.830Z,63.20
2018-12-12T19:28:08.365Z,63.30
2018-12-12T19:30:36.013Z,64.10
2018-12-12T19:33:03.691Z,64.10
2018-12-12T19:35:34.785Z,64.50
2018-12-12T19:38:00.443Z,64.50
2018-12-12T19:40:27.930Z,64.30
2018-12-12T19:42:56.999Z,64.90
2018-12-12T19:45:24.454Z,65.10
2018-12-12T19:47:52.026Z,65.10
2018-12-12T19:50:19.389Z,63.90
2018-12-12T19:52:46.686Z,64.60
2018-12-12T19:55:19.681Z,65.00
2018-12-12T19:57:47.076Z,64.60
2018-12-12T20:00:14.500Z,64.10
2018-12-12T20:02:43.006Z,64.50
2018-12-12T20:05:11.650Z,65.60
2018-12-12T20:07:46.843Z,65.50
2018-12-12T20:10:14.365Z,65.70
2018-12-12T20:12:41.671Z,66.20
2018-12-12T20:15:13.709Z,66.20
2018-12-12T20:17:41.038Z,66.50
2018-12-12T20:20:13.529Z,65.60
2018-12-12T20:22:40.889Z,65.50
2018-12-12T20:25:08.311Z,66.80
2018-12-12T20:27:35.881Z,67.40
2018-12-12T20:30:03.537Z,67.70
2018-12-12T20:32:35.793Z,67.90
2018-12-12T20:35:03.610Z,67.50
2018-12-12T20:37:30.957Z,66.80
2018-12-12T20:39:58.257Z,66.50
2018-12-12T20:42:26.098Z,66.80
2018-12-12T20:44:53.581Z,67.90
2018-12-12T20:47:24.992Z,68.10
2018-12-12T20:49:52.289Z,68.00
2018-12-12T20:52:19.718Z,67.50
2018-12-12T20:54:47.001Z,68.00
2018-12-12T20:57:14.356Z,67.70
2018-12-12T21:02:14.392Z,67.60
2018-12-12T21:04:41.944Z,67.80
2018-12-12T21:07:09.311Z,66.80
2018-12-12T21:09:36.810Z,67.90
2018-12-12T21:12:07.255Z,68.10
2018-12-12T21:14:41.005Z,67.90
2018-12-12T21:17:08.358Z,68.20
2018-12-12T21:19:35.634Z,68.70
2018-12-12T21:22:03.329Z,68.50
2018-12-12T21:24:30.606Z,68.20
2018-12-12T21:26:57.894Z,68.80
2018-12-12T21:29:25.230Z,68.70
2018-12-12T21:31:52.894Z,69.50
2018-12-12T21:34:26.551Z,68.60
2018-12-12T21:36:53.917Z,68.40
2018-12-12T21:39:21.229Z,69.40
2018-12-12T21:41:48.592Z,68.30
2018-12-12T21:44:17.294Z,68.60
2018-12-12T21:46:44.588Z,69.00
2018-12-12T21:49:11.922Z,70.60
2018-12-12T21:51:40.156Z,70.10
2018-12-12T21:54:07.630Z,70.20
2018-12-12T21:56:35.031Z,71.50
2018-12-12T21:59:02.619Z,72.20
2018-12-12T22:01:30.401Z,72.10
2018-12-12T22:03:58.885Z,72.50
2018-12-12T22:06:28.609Z,72.30
2018-12-12T22:08:55.903Z,72.60
2018-12-12T22:11:24.302Z,72.50
2018-12-12T22:13:52.761Z,71.90
2018-12-12T22:16:21.205Z,72.30
2018-12-12T22:18:49.713Z,72.00
2018-12-12T22:21:18.130Z,71.60
2018-12-12T22:23:46.645Z,71.60
2018-12-12T22:26:15.313Z,71.60
2018-12-12T22:28:43.746Z,71.60
2018-12-12T22:31:12.221Z,71.40
2018-12-12T22:33:40.629Z,71.60
2018-12-12T22:36:14.094Z,71.60
2018-12-12T22:38:39.774Z,72.30
2018-12-12T22:41:08.248Z,72.40
2018-12-12T22:43:36.864Z,72.80
2018-12-12T22:46:05.213Z,73.10
2018-12-12T22:48:33.537Z,73.00
2018-12-12T22:51:02.061Z,72.00
2018-12-12T22:53:30.649Z,71.80
2018-12-12T22:55:59.058Z,72.30
2018-12-12T22:58:27.491Z,71.60
2018-12-12T23:01:01.519Z,71.30
2018-12-12T23:03:29.933Z,71.60
2018-12-12T23:05:58.485Z,72.10
2018-12-12T23:08:26.938Z,73.30
2018-12-12T23:10:55.273Z,73.30
2018-12-12T23:13:23.792Z,73.30
2018-12-12T23:15:52.488Z,74.40
2018-12-12T23:18:20.914Z,74.50
2018-12-12T23:20:48.242Z,73.60
2018-12-12T23:23:16.724Z,72.60
2018-12-12T23:25:45.703Z,74.10
2018-12-12T23:28:14.158Z,74.10
2018-12-12T23:30:42.651Z,74.40
2018-12-12T23:33:11.977Z,72.90
2018-12-12T23:35:41.403Z,72.30
2018-12-12T23:38:09.956Z,72.50
2018-12-12T23:40:38.352Z,73.20
2018-12-12T23:43:07.026Z,73.60
2018-12-12T23:45:36.486Z,72.90
2018-12-12T23:48:04.134Z,72.70
2018-12-12T23:50:32.627Z,71.60
2018-12-12T23:53:01.052Z,71.60
2018-12-12T23:55:29.578Z,70.00
2018-12-12T23:57:58.068Z,71.00
